sensor_id;sensor_type;location;lat;lon;timestamp;P1;durP1;ratioP1;P2;durP2;ratioP2
78858;SDS011;68210;52.032;4.634;2023-04-24T00:00:20;3.05;;;1.73;;
78858;SDS011;68210;52.032;4.634;2023-04-24T00:02:21;5.53;;;1.55;;
78858;SDS011;68210;52.032;4.634;2023-04-24T00:04:22;5.63;;;1.75;;
78858;SDS011;68210;52.032;4.634;2023-04-24T00:06:26;4.93;;;1.90;;
78858;SDS011;68210;52.032;4.634;2023-04-24T00:08:33;5.35;;;2.28;;
78858;SDS011;68210;52.032;4.634;2023-04-24T00:10:33;3.97;;;1.90;;
78858;SDS011;68210;52.032;4.634;2023-04-24T00:12:34;5.80;;;2.30;;
78858;SDS011;68210;52.032;4.634;2023-04-24T00:14:35;4.55;;;2.28;;
78858;SDS011;68210;52.032;4.634;2023-04-24T00:16:35;4.05;;;2.45;;
78858;SDS011;68210;52.032;4.634;2023-04-24T00:18:35;4.68;;;2.83;;
78858;SDS011;68210;52.032;4.634;2023-04-24T00:20:36;4.85;;;2.65;;
78858;SDS011;68210;52.032;4.634;2023-04-24T00:22:36;5.93;;;3.30;;
78858;SDS011;68210;52.032;4.634;2023-04-24T00:24:36;6.25;;;3.28;;
78858;SDS011;68210;52.032;4.634;2023-04-24T00:26:37;5.38;;;2.78;;
78858;SDS011;68210;52.032;4.634;2023-04-24T00:28:37;5.53;;;2.85;;
78858;SDS011;68210;52.032;4.634;2023-04-24T00:30:38;6.95;;;3.28;;
78858;SDS011;68210;52.032;4.634;2023-04-24T00:32:38;6.47;;;3.45;;
78858;SDS011;68210;52.032;4.634;2023-04-24T00:34:38;5.97;;;3.70;;
78858;SDS011;68210;52.032;4.634;2023-04-24T00:36:39;5.57;;;3.15;;
78858;SDS011;68210;52.032;4.634;2023-04-24T00:38:40;4.82;;;3.28;;
78858;SDS011;68210;52.032;4.634;2023-04-24T00:40:40;6.28;;;3.65;;
78858;SDS011;68210;52.032;4.634;2023-04-24T00:42:41;7.18;;;3.15;;
78858;SDS011;68210;52.032;4.634;2023-04-24T00:44:43;4.93;;;2.42;;
78858;SDS011;68210;52.032;4.634;2023-04-24T00:46:43;3.65;;;1.85;;
78858;SDS011;68210;52.032;4.634;2023-04-24T00:48:44;3.40;;;2.10;;
78858;SDS011;68210;52.032;4.634;2023-04-24T00:50:44;4.18;;;1.80;;
78858;SDS011;68210;52.032;4.634;2023-04-24T00:52:45;5.38;;;2.22;;
78858;SDS011;68210;52.032;4.634;2023-04-24T00:54:46;3.22;;;1.38;;
78858;SDS011;68210;52.032;4.634;2023-04-24T00:56:46;3.00;;;1.30;;
78858;SDS011;68210;52.032;4.634;2023-04-24T00:58:47;2.17;;;1.50;;
78858;SDS011;68210;52.032;4.634;2023-04-24T01:00:48;5.75;;;2.30;;
78858;SDS011;68210;52.032;4.634;2023-04-24T01:02:53;4.63;;;2.38;;
78858;SDS011;68210;52.032;4.634;2023-04-24T01:04:53;5.25;;;2.80;;
78858;SDS011;68210;52.032;4.634;2023-04-24T01:06:54;5.18;;;2.38;;
78858;SDS011;68210;52.032;4.634;2023-04-24T01:08:55;3.92;;;2.40;;
78858;SDS011;68210;52.032;4.634;2023-04-24T01:10:57;6.82;;;2.42;;
78858;SDS011;68210;52.032;4.634;2023-04-24T01:12:58;5.45;;;2.15;;
78858;SDS011;68210;52.032;4.634;2023-04-24T01:14:58;4.70;;;2.30;;
78858;SDS011;68210;52.032;4.634;2023-04-24T01:16:59;5.78;;;2.45;;
78858;SDS011;68210;52.032;4.634;2023-04-24T01:19:00;4.30;;;2.60;;
78858;SDS011;68210;52.032;4.634;2023-04-24T01:21:01;5.75;;;2.78;;
78858;SDS011;68210;52.032;4.634;2023-04-24T01:23:03;5.05;;;2.25;;
78858;SDS011;68210;52.032;4.634;2023-04-24T01:25:04;5.78;;;2.50;;
78858;SDS011;68210;52.032;4.634;2023-04-24T01:27:05;3.78;;;2.70;;
78858;SDS011;68210;52.032;4.634;2023-04-24T01:29:06;3.20;;;1.90;;
78858;SDS011;68210;52.032;4.634;2023-04-24T01:31:09;3.92;;;1.90;;
78858;SDS011;68210;52.032;4.634;2023-04-24T01:33:09;3.95;;;1.90;;
78858;SDS011;68210;52.032;4.634;2023-04-24T01:35:10;3.80;;;2.00;;
78858;SDS011;68210;52.032;4.634;2023-04-24T01:37:10;5.20;;;2.17;;
78858;SDS011;68210;52.032;4.634;2023-04-24T01:39:11;4.32;;;1.67;;
78858;SDS011;68210;52.032;4.634;2023-04-24T01:41:12;2.83;;;1.33;;
78858;SDS011;68210;52.032;4.634;2023-04-24T01:43:12;4.93;;;1.90;;
78858;SDS011;68210;52.032;4.634;2023-04-24T01:45:13;2.80;;;1.40;;
78858;SDS011;68210;52.032;4.634;2023-04-24T01:47:17;3.45;;;1.45;;
78858;SDS011;68210;52.032;4.634;2023-04-24T01:49:17;3.83;;;1.77;;
78858;SDS011;68210;52.032;4.634;2023-04-24T01:51:18;3.33;;;1.42;;
78858;SDS011;68210;52.032;4.634;2023-04-24T01:53:18;2.00;;;1.33;;
78858;SDS011;68210;52.032;4.634;2023-04-24T01:55:19;2.13;;;1.30;;
78858;SDS011;68210;52.032;4.634;2023-04-24T01:57:19;4.00;;;1.58;;
78858;SDS011;68210;52.032;4.634;2023-04-24T01:59:20;2.58;;;1.20;;
78858;SDS011;68210;52.032;4.634;2023-04-24T02:01:22;3.95;;;1.95;;
78858;SDS011;68210;52.032;4.634;2023-04-24T02:03:25;3.42;;;1.77;;
78858;SDS011;68210;52.032;4.634;2023-04-24T02:05:26;5.15;;;1.90;;
78858;SDS011;68210;52.032;4.634;2023-04-24T02:07:26;3.90;;;2.08;;
78858;SDS011;68210;52.032;4.634;2023-04-24T02:09:26;5.00;;;2.60;;
78858;SDS011;68210;52.032;4.634;2023-04-24T02:11:27;4.28;;;2.08;;
78858;SDS011;68210;52.032;4.634;2023-04-24T02:13:27;4.43;;;2.30;;
78858;SDS011;68210;52.032;4.634;2023-04-24T02:15:28;4.95;;;2.58;;
78858;SDS011;68210;52.032;4.634;2023-04-24T02:17:28;6.05;;;2.97;;
78858;SDS011;68210;52.032;4.634;2023-04-24T02:19:29;4.95;;;2.38;;
78858;SDS011;68210;52.032;4.634;2023-04-24T02:21:29;5.50;;;2.63;;
78858;SDS011;68210;52.032;4.634;2023-04-24T02:23:31;7.00;;;2.55;;
78858;SDS011;68210;52.032;4.634;2023-04-24T02:25:31;5.85;;;2.90;;
78858;SDS011;68210;52.032;4.634;2023-04-24T02:27:31;6.35;;;2.72;;
78858;SDS011;68210;52.032;4.634;2023-04-24T02:29:32;6.50;;;3.30;;
78858;SDS011;68210;52.032;4.634;2023-04-24T02:31:32;6.13;;;3.10;;
78858;SDS011;68210;52.032;4.634;2023-04-24T02:33:34;5.38;;;2.88;;
78858;SDS011;68210;52.032;4.634;2023-04-24T02:35:35;7.05;;;3.30;;
78858;SDS011;68210;52.032;4.634;2023-04-24T02:37:35;6.20;;;3.78;;
78858;SDS011;68210;52.032;4.634;2023-04-24T02:39:36;6.10;;;3.55;;
78858;SDS011;68210;52.032;4.634;2023-04-24T02:41:36;6.20;;;3.70;;
78858;SDS011;68210;52.032;4.634;2023-04-24T02:43:37;6.93;;;3.10;;
78858;SDS011;68210;52.032;4.634;2023-04-24T02:45:37;4.95;;;2.70;;
78858;SDS011;68210;52.032;4.634;2023-04-24T02:47:38;5.85;;;2.88;;
78858;SDS011;68210;52.032;4.634;2023-04-24T02:49:38;4.95;;;2.70;;
78858;SDS011;68210;52.032;4.634;2023-04-24T02:51:39;4.78;;;2.67;;
78858;SDS011;68210;52.032;4.634;2023-04-24T02:53:41;4.13;;;2.10;;
78858;SDS011;68210;52.032;4.634;2023-04-24T02:55:41;3.08;;;1.75;;
78858;SDS011;68210;52.032;4.634;2023-04-24T02:57:42;3.47;;;1.88;;
78858;SDS011;68210;52.032;4.634;2023-04-24T02:59:42;2.33;;;1.30;;
78858;SDS011;68210;52.032;4.634;2023-04-24T03:01:42;2.42;;;1.30;;
78858;SDS011;68210;52.032;4.634;2023-04-24T03:03:43;4.38;;;1.40;;
78858;SDS011;68210;52.032;4.634;2023-04-24T03:05:44;3.72;;;1.00;;
78858;SDS011;68210;52.032;4.634;2023-04-24T03:07:44;1.23;;;0.57;;
78858;SDS011;68210;52.032;4.634;2023-04-24T03:09:45;2.60;;;0.73;;
78858;SDS011;68210;52.032;4.634;2023-04-24T03:11:46;0.55;;;0.50;;
78858;SDS011;68210;52.032;4.634;2023-04-24T03:13:46;2.28;;;0.55;;
78858;SDS011;68210;52.032;4.634;2023-04-24T03:15:46;2.10;;;0.70;;
78858;SDS011;68210;52.032;4.634;2023-04-24T03:17:47;1.80;;;0.50;;
78858;SDS011;68210;52.032;4.634;2023-04-24T03:19:47;1.20;;;0.60;;
78858;SDS011;68210;52.032;4.634;2023-04-24T03:21:48;0.80;;;0.55;;
78858;SDS011;68210;52.032;4.634;2023-04-24T03:23:49;1.48;;;0.43;;
78858;SDS011;68210;52.032;4.634;2023-04-24T03:25:49;1.27;;;0.43;;
78858;SDS011;68210;52.032;4.634;2023-04-24T03:27:50;3.03;;;0.55;;
78858;SDS011;68210;52.032;4.634;2023-04-24T03:29:50;1.83;;;0.57;;
78858;SDS011;68210;52.032;4.634;2023-04-24T03:31:55;3.63;;;0.65;;
78858;SDS011;68210;52.032;4.634;2023-04-24T03:33:55;1.70;;;0.65;;
78858;SDS011;68210;52.032;4.634;2023-04-24T03:35:56;1.60;;;0.60;;
78858;SDS011;68210;52.032;4.634;2023-04-24T03:37:56;2.05;;;0.57;;
78858;SDS011;68210;52.032;4.634;2023-04-24T03:39:56;4.63;;;0.80;;
78858;SDS011;68210;52.032;4.634;2023-04-24T03:41:57;1.95;;;0.80;;
78858;SDS011;68210;52.032;4.634;2023-04-24T03:43:57;2.55;;;0.70;;
78858;SDS011;68210;52.032;4.634;2023-04-24T03:45:57;1.92;;;0.70;;
78858;SDS011;68210;52.032;4.634;2023-04-24T03:47:59;1.75;;;0.65;;
78858;SDS011;68210;52.032;4.634;2023-04-24T03:49:59;2.83;;;0.50;;
78858;SDS011;68210;52.032;4.634;2023-04-24T03:52:00;1.38;;;0.45;;
78858;SDS011;68210;52.032;4.634;2023-04-24T03:54:00;2.67;;;0.47;;
78858;SDS011;68210;52.032;4.634;2023-04-24T03:56:01;2.35;;;0.73;;
78858;SDS011;68210;52.032;4.634;2023-04-24T03:58:01;1.80;;;0.60;;
78858;SDS011;68210;52.032;4.634;2023-04-24T04:00:02;2.35;;;0.55;;
78858;SDS011;68210;52.032;4.634;2023-04-24T04:02:04;2.63;;;0.75;;
78858;SDS011;68210;52.032;4.634;2023-04-24T04:04:05;2.40;;;0.40;;
78858;SDS011;68210;52.032;4.634;2023-04-24T04:06:06;2.38;;;0.70;;
78858;SDS011;68210;52.032;4.634;2023-04-24T04:08:06;1.77;;;0.50;;
78858;SDS011;68210;52.032;4.634;2023-04-24T04:10:06;0.65;;;0.30;;
78858;SDS011;68210;52.032;4.634;2023-04-24T04:12:07;0.98;;;0.45;;
78858;SDS011;68210;52.032;4.634;2023-04-24T04:14:07;0.73;;;0.55;;
78858;SDS011;68210;52.032;4.634;2023-04-24T04:16:08;2.95;;;0.82;;
78858;SDS011;68210;52.032;4.634;2023-04-24T04:18:09;2.03;;;0.65;;
78858;SDS011;68210;52.032;4.634;2023-04-24T04:20:09;1.98;;;0.60;;
78858;SDS011;68210;52.032;4.634;2023-04-24T04:22:10;3.67;;;0.80;;
78858;SDS011;68210;52.032;4.634;2023-04-24T04:24:11;2.17;;;0.60;;
78858;SDS011;68210;52.032;4.634;2023-04-24T04:26:12;2.15;;;0.50;;
78858;SDS011;68210;52.032;4.634;2023-04-24T04:28:15;0.80;;;0.60;;
78858;SDS011;68210;52.032;4.634;2023-04-24T04:30:15;2.60;;;0.52;;
78858;SDS011;68210;52.032;4.634;2023-04-24T04:32:15;2.13;;;0.60;;
78858;SDS011;68210;52.032;4.634;2023-04-24T04:34:16;3.47;;;1.10;;
78858;SDS011;68210;52.032;4.634;2023-04-24T04:36:17;4.97;;;1.98;;
78858;SDS011;68210;52.032;4.634;2023-04-24T04:38:20;4.65;;;1.70;;
78858;SDS011;68210;52.032;4.634;2023-04-24T04:40:20;3.78;;;2.03;;
78858;SDS011;68210;52.032;4.634;2023-04-24T04:42:21;5.45;;;2.33;;
78858;SDS011;68210;52.032;4.634;2023-04-24T04:44:21;6.03;;;2.58;;
78858;SDS011;68210;52.032;4.634;2023-04-24T04:46:23;4.00;;;1.88;;
78858;SDS011;68210;52.032;4.634;2023-04-24T04:48:26;4.85;;;1.40;;
78858;SDS011;68210;52.032;4.634;2023-04-24T04:50:27;4.35;;;1.70;;
78858;SDS011;68210;52.032;4.634;2023-04-24T04:52:28;2.47;;;1.00;;
78858;SDS011;68210;52.032;4.634;2023-04-24T04:54:28;4.20;;;1.35;;
78858;SDS011;68210;52.032;4.634;2023-04-24T04:56:28;4.97;;;1.13;;
78858;SDS011;68210;52.032;4.634;2023-04-24T04:58:29;4.00;;;1.75;;
78858;SDS011;68210;52.032;4.634;2023-04-24T05:00:29;4.47;;;2.38;;
78858;SDS011;68210;52.032;4.634;2023-04-24T05:02:35;6.63;;;2.95;;
78858;SDS011;68210;52.032;4.634;2023-04-24T05:04:35;7.55;;;3.10;;
78858;SDS011;68210;52.032;4.634;2023-04-24T05:06:36;7.00;;;2.10;;
78858;SDS011;68210;52.032;4.634;2023-04-24T05:08:36;9.45;;;3.10;;
78858;SDS011;68210;52.032;4.634;2023-04-24T05:10:36;7.38;;;3.13;;
78858;SDS011;68210;52.032;4.634;2023-04-24T05:12:37;5.18;;;2.63;;
78858;SDS011;68210;52.032;4.634;2023-04-24T05:14:37;5.43;;;2.75;;
78858;SDS011;68210;52.032;4.634;2023-04-24T05:16:38;6.22;;;2.97;;
78858;SDS011;68210;52.032;4.634;2023-04-24T05:18:39;8.88;;;3.50;;
78858;SDS011;68210;52.032;4.634;2023-04-24T05:20:40;11.45;;;4.00;;
78858;SDS011;68210;52.032;4.634;2023-04-24T05:22:41;11.93;;;4.10;;
78858;SDS011;68210;52.032;4.634;2023-04-24T05:24:41;9.45;;;4.82;;
78858;SDS011;68210;52.032;4.634;2023-04-24T05:26:42;14.82;;;7.03;;
78858;SDS011;68210;52.032;4.634;2023-04-24T05:28:42;14.18;;;7.00;;
78858;SDS011;68210;52.032;4.634;2023-04-24T05:30:42;17.73;;;6.35;;
78858;SDS011;68210;52.032;4.634;2023-04-24T05:32:43;20.77;;;7.95;;
78858;SDS011;68210;52.032;4.634;2023-04-24T05:34:43;16.30;;;7.90;;
78858;SDS011;68210;52.032;4.634;2023-04-24T05:36:45;21.00;;;8.82;;
78858;SDS011;68210;52.032;4.634;2023-04-24T05:38:46;21.55;;;9.75;;
78858;SDS011;68210;52.032;4.634;2023-04-24T05:40:46;20.90;;;8.45;;
78858;SDS011;68210;52.032;4.634;2023-04-24T05:42:46;17.50;;;8.15;;
78858;SDS011;68210;52.032;4.634;2023-04-24T05:44:47;24.95;;;8.77;;
78858;SDS011;68210;52.032;4.634;2023-04-24T05:46:47;17.50;;;7.82;;
78858;SDS011;68210;52.032;4.634;2023-04-24T05:48:48;20.45;;;8.75;;
78858;SDS011;68210;52.032;4.634;2023-04-24T05:50:48;23.65;;;6.90;;
78858;SDS011;68210;52.032;4.634;2023-04-24T05:52:48;14.43;;;7.30;;
78858;SDS011;68210;52.032;4.634;2023-04-24T05:54:49;14.77;;;7.25;;
78858;SDS011;68210;52.032;4.634;2023-04-24T05:56:49;15.88;;;9.23;;
78858;SDS011;68210;52.032;4.634;2023-04-24T05:58:50;16.27;;;7.38;;
78858;SDS011;68210;52.032;4.634;2023-04-24T06:00:51;15.38;;;6.38;;
78858;SDS011;68210;52.032;4.634;2023-04-24T06:02:51;20.67;;;6.80;;
78858;SDS011;68210;52.032;4.634;2023-04-24T06:04:52;12.02;;;6.32;;
78858;SDS011;68210;52.032;4.634;2023-04-24T06:06:53;18.00;;;7.53;;
78858;SDS011;68210;52.032;4.634;2023-04-24T06:08:57;18.00;;;6.82;;
78858;SDS011;68210;52.032;4.634;2023-04-24T06:10:58;14.82;;;6.65;;
78858;SDS011;68210;52.032;4.634;2023-04-24T06:12:59;14.13;;;7.32;;
78858;SDS011;68210;52.032;4.634;2023-04-24T06:15:00;21.75;;;7.18;;
78858;SDS011;68210;52.032;4.634;2023-04-24T06:17:00;14.65;;;6.97;;
78858;SDS011;68210;52.032;4.634;2023-04-24T06:19:01;14.82;;;5.13;;
78858;SDS011;68210;52.032;4.634;2023-04-24T06:21:01;15.20;;;5.75;;
78858;SDS011;68210;52.032;4.634;2023-04-24T06:23:02;19.35;;;5.50;;
78858;SDS011;68210;52.032;4.634;2023-04-24T06:25:02;16.50;;;4.57;;
78858;SDS011;68210;52.032;4.634;2023-04-24T06:27:03;20.55;;;4.57;;
78858;SDS011;68210;52.032;4.634;2023-04-24T06:29:03;17.60;;;4.95;;
78858;SDS011;68210;52.032;4.634;2023-04-24T06:31:04;12.40;;;4.18;;
78858;SDS011;68210;52.032;4.634;2023-04-24T06:33:04;15.65;;;5.07;;
78858;SDS011;68210;52.032;4.634;2023-04-24T06:35:05;15.98;;;4.53;;
78858;SDS011;68210;52.032;4.634;2023-04-24T06:37:07;16.38;;;4.35;;
78858;SDS011;68210;52.032;4.634;2023-04-24T06:39:07;14.80;;;4.22;;
78858;SDS011;68210;52.032;4.634;2023-04-24T06:41:09;12.35;;;4.28;;
78858;SDS011;68210;52.032;4.634;2023-04-24T06:43:10;12.43;;;4.47;;
78858;SDS011;68210;52.032;4.634;2023-04-24T06:45:10;16.33;;;4.93;;
78858;SDS011;68210;52.032;4.634;2023-04-24T06:47:11;16.40;;;4.20;;
78858;SDS011;68210;52.032;4.634;2023-04-24T06:49:13;13.57;;;4.93;;
78858;SDS011;68210;52.032;4.634;2023-04-24T06:51:15;15.40;;;4.60;;
78858;SDS011;68210;52.032;4.634;2023-04-24T06:53:18;22.33;;;5.38;;
78858;SDS011;68210;52.032;4.634;2023-04-24T06:55:18;16.42;;;4.80;;
78858;SDS011;68210;52.032;4.634;2023-04-24T06:57:19;17.15;;;4.45;;
78858;SDS011;68210;52.032;4.634;2023-04-24T06:59:19;16.48;;;3.50;;
78858;SDS011;68210;52.032;4.634;2023-04-24T07:01:20;12.73;;;3.95;;
78858;SDS011;68210;52.032;4.634;2023-04-24T07:03:20;12.20;;;3.10;;
78858;SDS011;68210;52.032;4.634;2023-04-24T07:05:21;14.30;;;3.88;;
78858;SDS011;68210;52.032;4.634;2023-04-24T07:07:21;10.18;;;3.92;;
78858;SDS011;68210;52.032;4.634;2023-04-24T07:09:24;10.80;;;3.05;;
78858;SDS011;68210;52.032;4.634;2023-04-24T07:11:25;16.77;;;4.72;;
78858;SDS011;68210;52.032;4.634;2023-04-24T07:13:29;16.35;;;3.70;;
78858;SDS011;68210;52.032;4.634;2023-04-24T07:15:29;18.35;;;3.13;;
78858;SDS011;68210;52.032;4.634;2023-04-24T07:17:30;13.73;;;3.85;;
78858;SDS011;68210;52.032;4.634;2023-04-24T07:19:30;18.17;;;3.78;;
78858;SDS011;68210;52.032;4.634;2023-04-24T07:21:31;14.70;;;3.30;;
78858;SDS011;68210;52.032;4.634;2023-04-24T07:23:31;12.20;;;2.47;;
78858;SDS011;68210;52.032;4.634;2023-04-24T07:25:32;13.55;;;3.63;;
78858;SDS011;68210;52.032;4.634;2023-04-24T07:27:33;11.88;;;2.80;;
78858;SDS011;68210;52.032;4.634;2023-04-24T07:29:34;15.07;;;2.78;;
78858;SDS011;68210;52.032;4.634;2023-04-24T07:31:35;13.02;;;2.50;;
78858;SDS011;68210;52.032;4.634;2023-04-24T07:33:35;17.30;;;3.00;;
78858;SDS011;68210;52.032;4.634;2023-04-24T07:35:36;19.75;;;3.08;;
78858;SDS011;68210;52.032;4.634;2023-04-24T07:37:36;12.25;;;2.40;;
78858;SDS011;68210;52.032;4.634;2023-04-24T07:39:37;18.10;;;3.85;;
78858;SDS011;68210;52.032;4.634;2023-04-24T07:41:37;16.33;;;2.95;;
78858;SDS011;68210;52.032;4.634;2023-04-24T07:43:38;11.10;;;2.20;;
78858;SDS011;68210;52.032;4.634;2023-04-24T07:45:38;14.95;;;2.50;;
78858;SDS011;68210;52.032;4.634;2023-04-24T07:47:43;13.32;;;2.15;;
78858;SDS011;68210;52.032;4.634;2023-04-24T07:49:45;10.35;;;3.22;;
78858;SDS011;68210;52.032;4.634;2023-04-24T07:51:45;13.85;;;3.05;;
78858;SDS011;68210;52.032;4.634;2023-04-24T07:53:46;11.88;;;2.03;;
78858;SDS011;68210;52.032;4.634;2023-04-24T07:55:46;8.95;;;2.17;;
78858;SDS011;68210;52.032;4.634;2023-04-24T07:57:47;7.32;;;2.38;;
78858;SDS011;68210;52.032;4.634;2023-04-24T07:59:47;14.63;;;2.25;;
78858;SDS011;68210;52.032;4.634;2023-04-24T08:01:47;12.48;;;2.22;;
78858;SDS011;68210;52.032;4.634;2023-04-24T08:03:48;9.43;;;3.08;;
78858;SDS011;68210;52.032;4.634;2023-04-24T08:05:48;10.68;;;2.08;;
78858;SDS011;68210;52.032;4.634;2023-04-24T08:07:50;5.75;;;1.73;;
78858;SDS011;68210;52.032;4.634;2023-04-24T08:09:51;13.13;;;2.38;;
78858;SDS011;68210;52.032;4.634;2023-04-24T08:11:51;13.40;;;2.63;;
78858;SDS011;68210;52.032;4.634;2023-04-24T08:13:53;8.02;;;2.50;;
78858;SDS011;68210;52.032;4.634;2023-04-24T08:15:54;9.93;;;1.88;;
78858;SDS011;68210;52.032;4.634;2023-04-24T08:17:56;12.57;;;1.98;;
78858;SDS011;68210;52.032;4.634;2023-04-24T08:19:57;4.25;;;1.58;;
78858;SDS011;68210;52.032;4.634;2023-04-24T08:22:01;14.35;;;3.13;;
78858;SDS011;68210;52.032;4.634;2023-04-24T08:24:02;17.10;;;2.80;;
78858;SDS011;68210;52.032;4.634;2023-04-24T08:26:05;13.65;;;2.85;;
78858;SDS011;68210;52.032;4.634;2023-04-24T08:28:08;9.32;;;2.55;;
78858;SDS011;68210;52.032;4.634;2023-04-24T08:30:09;7.55;;;2.05;;
78858;SDS011;68210;52.032;4.634;2023-04-24T08:32:11;8.05;;;1.98;;
78858;SDS011;68210;52.032;4.634;2023-04-24T08:34:11;17.65;;;2.47;;
78858;SDS011;68210;52.032;4.634;2023-04-24T08:36:11;8.90;;;1.95;;
78858;SDS011;68210;52.032;4.634;2023-04-24T08:38:12;8.13;;;1.60;;
78858;SDS011;68210;52.032;4.634;2023-04-24T08:40:13;9.80;;;1.67;;
78858;SDS011;68210;52.032;4.634;2023-04-24T08:42:14;7.63;;;1.90;;
78858;SDS011;68210;52.032;4.634;2023-04-24T08:44:16;8.85;;;2.03;;
78858;SDS011;68210;52.032;4.634;2023-04-24T08:46:19;6.30;;;1.48;;
78858;SDS011;68210;52.032;4.634;2023-04-24T08:48:20;6.82;;;1.83;;
78858;SDS011;68210;52.032;4.634;2023-04-24T08:50:22;3.20;;;1.25;;
78858;SDS011;68210;52.032;4.634;2023-04-24T08:52:23;8.27;;;1.63;;
78858;SDS011;68210;52.032;4.634;2023-04-24T08:54:24;7.07;;;1.60;;
78858;SDS011;68210;52.032;4.634;2023-04-24T08:56:25;5.80;;;1.63;;
78858;SDS011;68210;52.032;4.634;2023-04-24T08:58:28;5.35;;;1.35;;
78858;SDS011;68210;52.032;4.634;2023-04-24T09:00:29;6.88;;;1.40;;
78858;SDS011;68210;52.032;4.634;2023-04-24T09:02:29;7.15;;;2.10;;
78858;SDS011;68210;52.032;4.634;2023-04-24T09:04:32;10.85;;;1.75;;
78858;SDS011;68210;52.032;4.634;2023-04-24T09:06:34;3.35;;;1.10;;
78858;SDS011;68210;52.032;4.634;2023-04-24T09:08:34;8.85;;;1.40;;
78858;SDS011;68210;52.032;4.634;2023-04-24T09:10:36;8.82;;;1.65;;
78858;SDS011;68210;52.032;4.634;2023-04-24T09:12:36;6.80;;;1.25;;
78858;SDS011;68210;52.032;4.634;2023-04-24T09:14:38;5.53;;;1.55;;
78858;SDS011;68210;52.032;4.634;2023-04-24T09:16:42;3.58;;;1.10;;
78858;SDS011;68210;52.032;4.634;2023-04-24T09:18:43;6.95;;;1.45;;
78858;SDS011;68210;52.032;4.634;2023-04-24T09:21:02;3.97;;;0.98;;
78858;SDS011;68210;52.032;4.634;2023-04-24T09:23:04;4.50;;;1.35;;
78858;SDS011;68210;52.032;4.634;2023-04-24T09:25:07;3.47;;;0.80;;
78858;SDS011;68210;52.032;4.634;2023-04-24T09:27:10;3.60;;;1.00;;
78858;SDS011;68210;52.032;4.634;2023-04-24T09:29:18;5.10;;;1.00;;
78858;SDS011;68210;52.032;4.634;2023-04-24T09:31:19;7.78;;;1.23;;
78858;SDS011;68210;52.032;4.634;2023-04-24T09:33:21;2.88;;;1.10;;
78858;SDS011;68210;52.032;4.634;2023-04-24T09:35:22;7.50;;;1.10;;
78858;SDS011;68210;52.032;4.634;2023-04-24T09:37:28;2.90;;;0.65;;
78858;SDS011;68210;52.032;4.634;2023-04-24T09:39:29;3.67;;;0.85;;
78858;SDS011;68210;52.032;4.634;2023-04-24T09:41:30;3.05;;;0.85;;
78858;SDS011;68210;52.032;4.634;2023-04-24T09:43:32;13.07;;;1.38;;
78858;SDS011;68210;52.032;4.634;2023-04-24T09:45:37;5.05;;;0.95;;
78858;SDS011;68210;52.032;4.634;2023-04-24T09:47:39;8.38;;;1.27;;
78858;SDS011;68210;52.032;4.634;2023-04-24T09:49:41;5.45;;;1.00;;
78858;SDS011;68210;52.032;4.634;2023-04-24T09:51:43;5.75;;;1.10;;
78858;SDS011;68210;52.032;4.634;2023-04-24T09:53:47;5.53;;;0.93;;
78858;SDS011;68210;52.032;4.634;2023-04-24T09:55:52;2.80;;;1.00;;
78858;SDS011;68210;52.032;4.634;2023-04-24T09:57:54;2.38;;;0.70;;
78858;SDS011;68210;52.032;4.634;2023-04-24T09:59:56;4.50;;;0.70;;
78858;SDS011;68210;52.032;4.634;2023-04-24T10:01:57;6.07;;;0.90;;
78858;SDS011;68210;52.032;4.634;2023-04-24T10:03:59;4.72;;;0.90;;
78858;SDS011;68210;52.032;4.634;2023-04-24T10:06:03;6.07;;;0.93;;
78858;SDS011;68210;52.032;4.634;2023-04-24T10:08:11;2.08;;;0.55;;
78858;SDS011;68210;52.032;4.634;2023-04-24T10:10:12;5.88;;;0.95;;
78858;SDS011;68210;52.032;4.634;2023-04-24T10:12:12;5.57;;;0.80;;
78858;SDS011;68210;52.032;4.634;2023-04-24T10:14:14;5.55;;;1.00;;
78858;SDS011;68210;52.032;4.634;2023-04-24T10:16:18;2.65;;;0.73;;
78858;SDS011;68210;52.032;4.634;2023-04-24T10:18:21;3.28;;;0.68;;
78858;SDS011;68210;52.032;4.634;2023-04-24T10:20:23;2.50;;;0.68;;
78858;SDS011;68210;52.032;4.634;2023-04-24T10:24:25;5.93;;;0.68;;
78858;SDS011;68210;52.032;4.634;2023-04-24T10:26:26;2.08;;;0.50;;
78858;SDS011;68210;52.032;4.634;2023-04-24T10:28:27;3.38;;;1.02;;
78858;SDS011;68210;52.032;4.634;2023-04-24T10:30:32;4.28;;;0.98;;
78858;SDS011;68210;52.032;4.634;2023-04-24T10:32:35;2.60;;;0.70;;
78858;SDS011;68210;52.032;4.634;2023-04-24T10:34:35;4.55;;;1.45;;
78858;SDS011;68210;52.032;4.634;2023-04-24T10:36:36;2.60;;;0.70;;
78858;SDS011;68210;52.032;4.634;2023-04-24T10:38:45;3.30;;;0.65;;
78858;SDS011;68210;52.032;4.634;2023-04-24T10:40:46;2.78;;;0.68;;
78858;SDS011;68210;52.032;4.634;2023-04-24T10:42:48;4.15;;;0.90;;
78858;SDS011;68210;52.032;4.634;2023-04-24T10:44:49;3.50;;;0.73;;
78858;SDS011;68210;52.032;4.634;2023-04-24T10:46:52;5.93;;;1.05;;
78858;SDS011;68210;52.032;4.634;2023-04-24T10:48:54;11.13;;;0.98;;
78858;SDS011;68210;52.032;4.634;2023-04-24T10:50:55;6.68;;;1.50;;
78858;SDS011;68210;52.032;4.634;2023-04-24T10:53:14;4.43;;;0.77;;
78858;SDS011;68210;52.032;4.634;2023-04-24T10:55:29;5.13;;;1.20;;
78858;SDS011;68210;52.032;4.634;2023-04-24T10:58:03;10.05;;;1.85;;
78858;SDS011;68210;52.032;4.634;2023-04-24T11:00:12;4.57;;;1.00;;
78858;SDS011;68210;52.032;4.634;2023-04-24T11:02:15;5.20;;;1.58;;
78858;SDS011;68210;52.032;4.634;2023-04-24T11:04:22;3.00;;;1.30;;
78858;SDS011;68210;52.032;4.634;2023-04-24T11:06:33;5.70;;;1.20;;
78858;SDS011;68210;52.032;4.634;2023-04-24T11:10:54;2.60;;;0.80;;
78858;SDS011;68210;52.032;4.634;2023-04-24T11:12:58;9.07;;;1.38;;
78858;SDS011;68210;52.032;4.634;2023-04-24T11:15:00;5.43;;;1.55;;
78858;SDS011;68210;52.032;4.634;2023-04-24T11:17:00;3.92;;;1.40;;
78858;SDS011;68210;52.032;4.634;2023-04-24T11:19:02;2.95;;;0.85;;
78858;SDS011;68210;52.032;4.634;2023-04-24T11:21:11;3.83;;;0.88;;
78858;SDS011;68210;52.032;4.634;2023-04-24T11:23:12;3.30;;;0.70;;
78858;SDS011;68210;52.032;4.634;2023-04-24T11:25:14;2.75;;;0.60;;
78858;SDS011;68210;52.032;4.634;2023-04-24T11:27:17;7.57;;;1.65;;
78858;SDS011;68210;52.032;4.634;2023-04-24T11:29:20;5.03;;;0.93;;
78858;SDS011;68210;52.032;4.634;2023-04-24T11:31:40;4.55;;;0.82;;
78858;SDS011;68210;52.032;4.634;2023-04-24T11:33:48;6.55;;;1.00;;
78858;SDS011;68210;52.032;4.634;2023-04-24T11:35:49;7.10;;;1.13;;
78858;SDS011;68210;52.032;4.634;2023-04-24T11:37:51;6.63;;;1.02;;
78858;SDS011;68210;52.032;4.634;2023-04-24T11:39:53;3.47;;;1.23;;
78858;SDS011;68210;52.032;4.634;2023-04-24T11:42:01;6.75;;;0.82;;
78858;SDS011;68210;52.032;4.634;2023-04-24T11:44:03;3.75;;;1.10;;
78858;SDS011;68210;52.032;4.634;2023-04-24T11:50:07;4.93;;;1.40;;
78858;SDS011;68210;52.032;4.634;2023-04-24T11:52:09;4.80;;;0.70;;
78858;SDS011;68210;52.032;4.634;2023-04-24T11:54:10;7.40;;;1.20;;
78858;SDS011;68210;52.032;4.634;2023-04-24T11:56:11;4.00;;;1.13;;
78858;SDS011;68210;52.032;4.634;2023-04-24T11:58:11;5.35;;;1.30;;
78858;SDS011;68210;52.032;4.634;2023-04-24T12:00:15;8.82;;;1.45;;
78858;SDS011;68210;52.032;4.634;2023-04-24T12:02:20;4.70;;;1.45;;
78858;SDS011;68210;52.032;4.634;2023-04-24T12:04:24;8.15;;;1.55;;
78858;SDS011;68210;52.032;4.634;2023-04-24T12:06:25;5.57;;;1.23;;
78858;SDS011;68210;52.032;4.634;2023-04-24T12:08:28;7.80;;;1.60;;
78858;SDS011;68210;52.032;4.634;2023-04-24T12:10:29;7.63;;;1.63;;
78858;SDS011;68210;52.032;4.634;2023-04-24T12:12:31;11.65;;;1.77;;
78858;SDS011;68210;52.032;4.634;2023-04-24T12:14:31;10.43;;;2.30;;
78858;SDS011;68210;52.032;4.634;2023-04-24T12:16:32;9.15;;;1.75;;